createdAt,value
2019-06-08T00:00:20.702Z,17.50
2019-06-08T00:02:49.531Z,17.50
2019-06-08T00:05:18.793Z,17.50
2019-06-08T00:07:47.381Z,17.40
2019-06-08T00:10:16.921Z,17.40
2019-06-08T00:12:45.822Z,17.30
2019-06-08T00:15:14.502Z,17.30
2019-06-08T00:17:42.917Z,17.20
2019-06-08T00:20:13.461Z,17.30
2019-06-08T00:22:41.944Z,17.40
2019-06-08T00:25:12.098Z,17.40
2019-06-08T00:27:40.531Z,17.30
2019-06-08T00:30:09.382Z,17.30
2019-06-08T00:32:37.846Z,17.30
2019-06-08T00:35:08.325Z,17.30
2019-06-08T00:37:36.801Z,17.30
2019-06-08T00:40:07.931Z,17.30
2019-06-08T00:42:36.742Z,17.20
2019-06-08T00:45:09.975Z,17.30
2019-06-08T00:47:47.502Z,17.20
2019-06-08T00:50:10.094Z,17.20
2019-06-08T00:52:38.490Z,17.10
2019-06-08T00:55:07.242Z,17.20
2019-06-08T00:57:35.634Z,17.20
2019-06-08T01:00:10.536Z,17.20
2019-06-08T01:02:36.445Z,17.20
2019-06-08T01:05:08.441Z,17.20
2019-06-08T01:07:36.843Z,17.20
2019-06-08T01:10:08.710Z,17.20
2019-06-08T01:12:37.281Z,17.20
2019-06-08T01:15:07.619Z,17.20
2019-06-08T01:17:36.416Z,17.20
2019-06-08T01:20:09.188Z,17.20
2019-06-08T01:22:37.890Z,17.30
2019-06-08T01:25:06.864Z,17.30
2019-06-08T01:27:35.565Z,17.20
2019-06-08T01:30:07.049Z,17.20
2019-06-08T01:32:35.458Z,17.30
2019-06-08T01:35:04.723Z,17.30
2019-06-08T01:37:33.394Z,17.30
2019-06-08T01:40:01.811Z,17.30
2019-06-08T01:42:31.758Z,17.30
2019-06-08T01:45:00.686Z,17.30
2019-06-08T01:47:30.319Z,17.20
2019-06-08T01:49:58.887Z,17.20
2019-06-08T01:52:27.290Z,17.30
2019-06-08T01:54:57.291Z,17.30
2019-06-08T01:57:25.696Z,17.20
2019-06-08T01:59:54.104Z,17.20
2019-06-08T02:02:23.712Z,17.20
2019-06-08T02:04:52.307Z,17.30
2019-06-08T02:07:20.723Z,17.30
2019-06-08T02:09:49.139Z,17.30
2019-06-08T02:12:17.537Z,17.30
2019-06-08T02:14:45.949Z,17.30
2019-06-08T02:17:14.353Z,17.20
2019-06-08T02:19:42.778Z,17.10
2019-06-08T02:22:11.173Z,17.10
2019-06-08T02:24:39.639Z,17.10
2019-06-08T02:27:08.405Z,17.10
2019-06-08T02:29:37.098Z,17.10
2019-06-08T02:32:05.807Z,17.10
2019-06-08T02:34:36.013Z,17.10
2019-06-08T02:37:04.402Z,17.10
2019-06-08T02:39:32.890Z,17.10
2019-06-08T02:42:01.294Z,17.10
2019-06-08T02:44:30.245Z,17.10
2019-06-08T02:46:58.737Z,17.20
2019-06-08T02:49:28.992Z,17.20
2019-06-08T02:51:57.290Z,17.10
2019-06-08T02:54:26.042Z,17.10
2019-06-08T02:56:56.035Z,17.00
2019-06-08T02:59:29.302Z,16.90
2019-06-08T03:01:59.984Z,17.00
2019-06-08T03:04:32.274Z,17.00
2019-06-08T03:07:03.554Z,17.10
2019-06-08T03:09:34.776Z,17.00
2019-06-08T03:12:04.715Z,17.00
2019-06-08T03:14:35.455Z,17.00
2019-06-08T03:17:04.006Z,17.10
2019-06-08T03:19:33.361Z,17.00
2019-06-08T03:22:02.196Z,17.00
2019-06-08T03:24:32.254Z,17.00
2019-06-08T03:27:01.010Z,16.90
2019-06-08T03:29:29.414Z,16.90
2019-06-08T03:31:57.961Z,16.90
2019-06-08T03:34:26.513Z,16.90
2019-06-08T03:36:57.056Z,17.00
2019-06-08T03:39:25.391Z,17.00
2019-06-08T03:41:53.975Z,16.90
2019-06-08T03:44:22.650Z,16.90
2019-06-08T03:46:51.062Z,16.80
2019-06-08T03:49:39.980Z,16.80
2019-06-08T03:51:50.161Z,16.70
2019-06-08T03:54:18.848Z,16.60
2019-06-08T03:56:47.259Z,16.80
2019-06-08T03:59:15.669Z,16.80
2019-06-08T04:01:45.986Z,16.80
2019-06-08T04:04:14.217Z,16.80
2019-06-08T04:06:43.693Z,16.70
2019-06-08T04:09:12.609Z,16.70
2019-06-08T04:11:42.348Z,16.70
2019-06-08T04:14:11.154Z,16.80
2019-06-08T04:16:40.175Z,16.70
2019-06-08T04:19:09.158Z,16.50
2019-06-08T04:21:37.951Z,16.50
2019-06-08T04:24:06.818Z,16.40
2019-06-08T04:26:35.223Z,16.50
2019-06-08T04:29:03.626Z,16.60
2019-06-08T04:31:32.057Z,16.70
2019-06-08T04:34:00.450Z,16.70
2019-06-08T04:36:29.119Z,16.60
2019-06-08T04:38:57.523Z,16.60
2019-06-08T04:41:25.933Z,16.60
2019-06-08T04:43:54.403Z,16.50
2019-06-08T04:46:22.811Z,16.40
2019-06-08T04:48:51.218Z,16.40
2019-06-08T04:51:19.626Z,16.50
2019-06-08T04:53:49.512Z,16.60
2019-06-08T04:56:18.533Z,16.50
2019-06-08T04:58:48.982Z,16.50
2019-06-08T05:01:17.371Z,16.50
2019-06-08T05:03:47.587Z,16.50
2019-06-08T05:06:16.171Z,16.50
2019-06-08T05:08:45.262Z,16.50
2019-06-08T05:11:14.256Z,16.40
2019-06-08T05:13:43.354Z,16.40
2019-06-08T05:16:12.247Z,16.40
2019-06-08T05:18:41.219Z,16.40
2019-06-08T05:21:09.852Z,16.30
2019-06-08T05:23:39.272Z,16.30
2019-06-08T05:26:07.855Z,16.40
2019-06-08T05:28:36.505Z,16.40
2019-06-08T05:31:04.909Z,16.40
2019-06-08T05:33:33.330Z,16.50
2019-06-08T05:36:02.072Z,16.40
2019-06-08T05:38:30.487Z,16.40
2019-06-08T05:40:59.142Z,16.50
2019-06-08T05:43:27.826Z,16.40
2019-06-08T05:45:56.225Z,16.30
2019-06-08T05:48:24.637Z,16.30
2019-06-08T05:51:03.056Z,16.30
2019-06-08T05:53:23.505Z,16.20
2019-06-08T05:55:51.905Z,16.20
2019-06-08T05:58:20.681Z,16.20
2019-06-08T06:00:50.494Z,16.20
2019-06-08T06:03:19.495Z,16.10
2019-06-08T06:05:48.539Z,16.10
2019-06-08T06:08:19.233Z,16.20
2019-06-08T06:10:47.239Z,16.10
2019-06-08T06:13:15.658Z,16.10
2019-06-08T06:15:44.967Z,16.20
2019-06-08T06:18:13.678Z,16.30
2019-06-08T06:20:43.375Z,16.20
2019-06-08T06:23:11.865Z,16.10
2019-06-08T06:25:41.384Z,16.10
2019-06-08T06:28:10.282Z,16.20
2019-06-08T06:30:38.748Z,16.30
2019-06-08T06:33:07.206Z,16.20
2019-06-08T06:35:35.608Z,16.20
2019-06-08T06:38:04.042Z,16.20
2019-06-08T06:40:32.701Z,16.30
2019-06-08T06:43:01.394Z,16.40
2019-06-08T06:45:30.078Z,16.30
2019-06-08T06:47:58.492Z,16.20
2019-06-08T06:50:27.154Z,16.20
2019-06-08T06:52:55.567Z,16.20
2019-06-08T06:55:25.500Z,16.20
2019-06-08T06:57:54.067Z,16.20
2019-06-08T07:00:30.747Z,16.30
2019-06-08T07:03:00.832Z,16.20
2019-06-08T07:05:29.517Z,16.30
2019-06-08T07:07:57.937Z,16.30
2019-06-08T07:10:26.333Z,16.30
2019-06-08T07:12:54.913Z,16.40
2019-06-08T07:15:27.982Z,16.40
2019-06-08T07:17:58.558Z,16.40
2019-06-08T07:20:27.227Z,16.30
2019-06-08T07:22:55.978Z,16.20
2019-06-08T07:25:24.669Z,16.20
2019-06-08T07:27:53.086Z,16.20
2019-06-08T07:30:23.395Z,16.20
2019-06-08T07:32:53.004Z,16.30
2019-06-08T07:35:21.889Z,16.30
2019-06-08T07:37:51.862Z,16.30
2019-06-08T07:40:20.531Z,16.30
2019-06-08T07:42:49.711Z,16.40
2019-06-08T07:45:19.812Z,16.40
2019-06-08T07:47:49.840Z,16.50
2019-06-08T07:50:18.945Z,16.50
2019-06-08T07:52:48.025Z,16.40
2019-06-08T07:55:18.249Z,16.40
2019-06-08T07:57:48.600Z,16.40
2019-06-08T08:00:17.314Z,16.40
2019-06-08T08:02:45.730Z,16.40
2019-06-08T08:05:14.546Z,16.40
2019-06-08T08:07:43.235Z,16.50
2019-06-08T08:10:12.255Z,16.60
2019-06-08T08:12:41.028Z,16.50
2019-06-08T08:15:09.694Z,16.60
2019-06-08T08:17:38.114Z,16.60
2019-06-08T08:20:08.549Z,16.60
2019-06-08T08:22:38.202Z,16.50
2019-06-08T08:25:08.248Z,16.60
2019-06-08T08:27:37.610Z,16.60
2019-06-08T08:30:08.415Z,16.50
2019-06-08T08:32:37.988Z,16.60
2019-06-08T08:35:08.764Z,16.60
2019-06-08T08:37:38.077Z,16.60
2019-06-08T08:40:08.059Z,16.50
2019-06-08T08:42:38.650Z,16.50
2019-06-08T08:45:08.643Z,16.60
2019-06-08T08:47:38.709Z,16.60
2019-06-08T08:50:08.134Z,16.70
2019-06-08T08:52:40.393Z,16.70
2019-06-08T08:55:08.468Z,16.90
2019-06-08T08:57:38.556Z,17.00
2019-06-08T09:00:08.856Z,17.00
2019-06-08T09:02:38.043Z,16.90
2019-06-08T09:05:08.671Z,16.90
2019-06-08T09:07:38.577Z,16.80
2019-06-08T09:10:08.516Z,16.80
2019-06-08T09:12:37.769Z,16.80
2019-06-08T09:15:08.638Z,16.90
2019-06-08T09:17:38.802Z,17.00
2019-06-08T09:20:13.046Z,17.30
2019-06-08T09:22:52.464Z,17.40
2019-06-08T09:25:09.381Z,17.40
2019-06-08T09:27:38.264Z,17.30
2019-06-08T09:30:08.427Z,17.20
2019-06-08T09:32:38.209Z,17.20
2019-06-08T09:35:09.077Z,17.20
2019-06-08T09:37:37.666Z,17.20
2019-06-08T09:40:07.232Z,17.30
2019-06-08T09:42:35.911Z,17.70
2019-06-08T09:45:09.018Z,18.00
2019-06-08T09:47:38.113Z,18.10
2019-06-08T09:50:09.167Z,18.00
2019-06-08T09:52:40.975Z,17.90
2019-06-08T09:55:09.709Z,17.90
2019-06-08T09:57:38.522Z,17.80
2019-06-08T10:00:15.320Z,17.70
2019-06-08T10:02:38.450Z,17.70
2019-06-08T10:05:07.310Z,17.70
2019-06-08T10:07:38.519Z,17.80
2019-06-08T10:10:09.741Z,17.70
2019-06-08T10:12:38.304Z,17.70
2019-06-08T10:15:08.278Z,17.70
2019-06-08T10:17:37.746Z,17.60
2019-06-08T10:20:09.997Z,17.60
2019-06-08T10:22:37.785Z,17.80
2019-06-08T10:25:10.791Z,17.70
2019-06-08T10:27:38.584Z,17.70
2019-06-08T10:30:10.189Z,17.90
2019-06-08T10:32:39.067Z,17.90
2019-06-08T10:35:10.532Z,17.90
2019-06-08T10:37:38.477Z,17.90
2019-06-08T10:40:07.910Z,17.70
2019-06-08T10:42:39.803Z,17.70
2019-06-08T10:45:13.085Z,17.70
2019-06-08T10:47:39.287Z,17.80
2019-06-08T10:50:14.929Z,17.80
2019-06-08T10:52:40.128Z,17.90
2019-06-08T10:55:10.419Z,18.00
2019-06-08T10:57:39.022Z,18.00
2019-06-08T11:00:17.988Z,18.00
2019-06-08T11:02:40.805Z,18.00
2019-06-08T11:05:13.626Z,18.00
2019-06-08T11:07:39.991Z,18.00
2019-06-08T11:10:11.655Z,18.10
2019-06-08T11:12:38.597Z,18.20
2019-06-08T11:15:09.631Z,18.00
2019-06-08T11:17:37.863Z,18.00
2019-06-08T11:20:13.124Z,18.20
2019-06-08T11:22:38.221Z,18.20
2019-06-08T11:25:15.184Z,18.20
2019-06-08T11:27:38.802Z,18.20
2019-06-08T11:30:17.973Z,18.20
2019-06-08T11:32:38.788Z,18.40
2019-06-08T11:35:10.704Z,18.50
2019-06-08T11:37:40.457Z,18.50
2019-06-08T11:40:12.376Z,18.60
2019-06-08T11:42:40.358Z,18.60
2019-06-08T11:45:12.571Z,18.60
2019-06-08T11:47:40.452Z,18.50
2019-06-08T11:50:12.766Z,18.50
2019-06-08T11:52:39.599Z,18.50
2019-06-08T11:55:11.295Z,18.40
2019-06-08T11:57:40.373Z,18.30
2019-06-08T12:00:23.406Z,18.20
2019-06-08T12:02:41.306Z,18.10
2019-06-08T12:05:12.420Z,18.10
2019-06-08T12:07:40.502Z,18.10
2019-06-08T12:10:10.901Z,18.10
2019-06-08T12:12:39.244Z,18.10
2019-06-08T12:15:10.052Z,18.10
2019-06-08T12:17:38.085Z,18.10
2019-06-08T12:20:08.532Z,18.10
2019-06-08T12:22:37.726Z,18.30
2019-06-08T12:25:08.195Z,18.40
2019-06-08T12:27:40.223Z,18.50
2019-06-08T12:30:12.101Z,18.60
2019-06-08T12:32:37.866Z,18.70
2019-06-08T12:35:09.052Z,18.70
2019-06-08T12:37:38.691Z,18.80
2019-06-08T12:40:09.804Z,18.80
2019-06-08T12:42:38.184Z,18.80
2019-06-08T12:45:07.489Z,19.00
2019-06-08T12:47:38.028Z,19.10
2019-06-08T12:50:08.888Z,19.20
2019-06-08T12:52:39.218Z,19.20
2019-06-08T12:55:12.562Z,19.40
2019-06-08T12:57:37.966Z,19.50
2019-06-08T13:00:08.505Z,19.50
2019-06-08T13:02:38.415Z,19.60
2019-06-08T13:05:10.715Z,19.60
2019-06-08T13:07:38.551Z,19.60
2019-06-08T13:10:08.711Z,19.70
2019-06-08T13:12:40.676Z,19.70
2019-06-08T13:15:09.637Z,19.70
2019-06-08T13:17:38.486Z,19.80
2019-06-08T13:20:22.159Z,19.90
2019-06-08T13:22:50.638Z,19.80
2019-06-08T13:25:36.344Z,20.00
2019-06-08T13:27:49.853Z,20.10
2019-06-08T13:30:23.341Z,20.10
2019-06-08T13:32:48.738Z,20.00
2019-06-08T13:35:20.713Z,20.00
2019-06-08T13:37:47.522Z,19.90
2019-06-08T13:40:20.035Z,20.00
2019-06-08T13:42:50.900Z,20.10
2019-06-08T13:45:19.039Z,20.20
2019-06-08T13:47:50.538Z,20.30
2019-06-08T13:50:20.906Z,20.40
2019-06-08T13:52:49.354Z,20.40
2019-06-08T13:55:37.627Z,20.40
2019-06-08T13:57:49.181Z,20.30
2019-06-08T14:00:21.787Z,20.30
2019-06-08T14:02:49.837Z,20.30
2019-06-08T14:05:26.230Z,20.40
2019-06-08T14:07:51.722Z,20.60
2019-06-08T14:10:24.470Z,20.80
2019-06-08T14:12:53.431Z,20.80
2019-06-08T14:15:23.361Z,20.80
2019-06-08T14:17:51.862Z,20.80
2019-06-08T14:20:24.711Z,20.80
2019-06-08T14:22:54.232Z,20.70
2019-06-08T14:25:24.215Z,20.60
2019-06-08T14:27:53.501Z,20.40
2019-06-08T14:30:22.432Z,20.30
2019-06-08T14:32:52.062Z,20.30
2019-06-08T14:35:22.650Z,20.20
2019-06-08T14:37:51.027Z,20.20
2019-06-08T14:40:19.434Z,20.20
2019-06-08T14:42:48.449Z,20.30
2019-06-08T14:45:18.221Z,20.30
2019-06-08T14:47:47.791Z,20.30
2019-06-08T14:50:19.395Z,20.30
2019-06-08T14:52:47.919Z,20.20
2019-06-08T14:55:18.773Z,20.20
2019-06-08T14:57:48.222Z,20.20
2019-06-08T15:00:21.232Z,20.20
2019-06-08T15:02:49.992Z,20.10
2019-06-08T15:05:19.847Z,20.10
2019-06-08T15:07:48.657Z,20.10
2019-06-08T15:10:18.196Z,20.10
2019-06-08T15:12:48.891Z,20.00
2019-06-08T15:15:18.460Z,20.10
2019-06-08T15:17:48.042Z,20.10
2019-06-08T15:20:17.605Z,20.10
2019-06-08T15:22:46.477Z,20.10
2019-06-08T15:25:18.118Z,20.00
2019-06-08T15:27:47.794Z,19.90
2019-06-08T15:30:17.839Z,19.80
2019-06-08T15:32:48.058Z,19.70
2019-06-08T15:35:18.183Z,19.40
2019-06-08T15:37:47.854Z,19.20
2019-06-08T15:40:17.703Z,19.00
2019-06-08T15:42:48.205Z,18.90
2019-06-08T15:45:18.303Z,18.90
2019-06-08T15:47:48.539Z,18.90
2019-06-08T15:50:17.923Z,18.80
2019-06-08T15:52:48.125Z,18.80
2019-06-08T15:55:19.055Z,18.80
2019-06-08T15:57:47.153Z,18.80
2019-06-08T16:00:18.478Z,18.70
2019-06-08T16:02:47.007Z,18.60
2019-06-08T16:05:15.606Z,18.50
2019-06-08T16:07:44.282Z,18.50
2019-06-08T16:10:13.165Z,18.50
2019-06-08T16:12:41.938Z,18.40
2019-06-08T16:15:11.790Z,18.40
2019-06-08T16:17:40.462Z,18.30
2019-06-08T16:20:09.219Z,18.20
2019-06-08T16:22:37.622Z,18.20
2019-06-08T16:25:06.848Z,18.00
2019-06-08T16:27:36.007Z,17.90
2019-06-08T16:30:09.430Z,17.90
2019-06-08T16:32:37.102Z,17.80
2019-06-08T16:35:07.426Z,17.70
2019-06-08T16:37:35.835Z,17.70
2019-06-08T16:40:09.207Z,17.70
2019-06-08T16:42:38.567Z,17.70
2019-06-08T16:45:08.323Z,17.60
2019-06-08T16:47:36.717Z,17.50
2019-06-08T16:50:06.937Z,17.60
2019-06-08T16:52:36.579Z,17.50
2019-06-08T16:55:06.598Z,17.40
2019-06-08T16:57:37.834Z,17.30
2019-06-08T17:00:30.003Z,17.30
2019-06-08T17:02:37.155Z,17.20
2019-06-08T17:05:09.176Z,17.10
2019-06-08T17:07:37.903Z,17.10
2019-06-08T17:10:07.534Z,17.10
2019-06-08T17:12:36.985Z,17.30
2019-06-08T17:15:06.943Z,17.30
2019-06-08T17:17:36.580Z,17.40
2019-06-08T17:20:07.070Z,17.50
2019-06-08T17:22:36.751Z,17.60
2019-06-08T17:25:08.728Z,17.70
2019-06-08T17:27:37.151Z,17.70
2019-06-08T17:30:08.614Z,17.70
2019-06-08T17:32:38.429Z,17.70
2019-06-08T17:35:08.420Z,17.60
2019-06-08T17:37:38.068Z,17.60
2019-06-08T17:40:07.449Z,17.50
2019-06-08T17:42:35.860Z,17.50
2019-06-08T17:45:07.125Z,17.50
2019-06-08T17:47:36.389Z,17.50
2019-06-08T17:50:08.399Z,17.60
2019-06-08T17:52:37.164Z,17.50
2019-06-08T17:55:07.650Z,17.50
2019-06-08T17:57:47.323Z,17.40
2019-06-08T18:00:08.233Z,17.30
2019-06-08T18:02:39.840Z,17.10
2019-06-08T18:05:08.141Z,16.90
2019-06-08T18:07:38.996Z,16.90
2019-06-08T18:10:07.603Z,16.90
2019-06-08T18:12:39.258Z,16.80
2019-06-08T18:15:07.914Z,16.70
2019-06-08T18:17:57.701Z,16.70
2019-06-08T18:20:28.335Z,16.70
2019-06-08T18:22:57.875Z,16.70
2019-06-08T18:25:27.881Z,16.70
2019-06-08T18:28:06.626Z,16.70
2019-06-08T18:30:27.659Z,16.70
2019-06-08T18:32:58.032Z,16.70
2019-06-08T18:35:27.812Z,16.70
2019-06-08T18:37:57.823Z,16.70
2019-06-08T18:40:27.586Z,16.70
2019-06-08T18:42:57.602Z,16.70
2019-06-08T18:45:27.689Z,16.70
2019-06-08T18:47:57.733Z,16.70
2019-06-08T18:50:28.525Z,16.60
2019-06-08T18:52:57.982Z,16.70
2019-06-08T18:55:27.771Z,16.70
2019-06-08T18:57:57.166Z,16.80
2019-06-08T19:00:40.033Z,16.70
2019-06-08T19:03:08.798Z,16.70
2019-06-08T19:05:40.648Z,16.70
2019-06-08T19:08:09.907Z,16.60
2019-06-08T19:10:39.474Z,16.70
2019-06-08T19:13:08.774Z,16.60
2019-06-08T19:15:41.874Z,16.70
2019-06-08T19:18:08.625Z,16.60
2019-06-08T19:20:42.255Z,16.70
2019-06-08T19:23:09.121Z,16.60
2019-06-08T19:25:42.102Z,16.60
2019-06-08T19:28:08.453Z,16.70
2019-06-08T19:30:39.488Z,16.60
2019-06-08T19:33:07.503Z,16.70
2019-06-08T19:35:37.442Z,16.60
2019-06-08T19:38:07.429Z,16.70
2019-06-08T19:40:37.901Z,16.70
2019-06-08T19:43:07.553Z,16.70
2019-06-08T19:45:38.515Z,16.70
2019-06-08T19:48:08.321Z,16.70
2019-06-08T19:50:38.646Z,16.70
2019-06-08T19:53:07.330Z,16.80
2019-06-08T19:55:35.918Z,16.70
2019-06-08T19:58:04.581Z,16.60
2019-06-08T20:00:33.330Z,16.60
2019-06-08T20:03:01.728Z,16.60
2019-06-08T20:05:30.470Z,16.70
2019-06-08T20:07:58.874Z,16.70
2019-06-08T20:10:27.974Z,16.70
2019-06-08T20:12:57.965Z,16.70
2019-06-08T20:15:26.504Z,16.60
2019-06-08T20:17:57.343Z,16.60
2019-06-08T20:20:27.699Z,16.60
2019-06-08T20:22:58.367Z,16.50
2019-06-08T20:25:27.905Z,16.60
2019-06-08T20:27:58.656Z,16.60
2019-06-08T20:30:28.233Z,16.50
2019-06-08T20:32:57.741Z,16.50
2019-06-08T20:35:28.007Z,16.50
2019-06-08T20:37:57.824Z,16.50
2019-06-08T20:40:27.979Z,16.60
2019-06-08T20:42:57.787Z,16.60
2019-06-08T20:45:28.022Z,16.60
2019-06-08T20:47:58.513Z,16.60
2019-06-08T20:50:27.169Z,16.60
2019-06-08T20:52:57.650Z,16.60
2019-06-08T20:55:28.011Z,16.60
2019-06-08T20:57:57.465Z,16.60
2019-06-08T21:00:26.520Z,16.60
2019-06-08T21:03:00.301Z,16.50
2019-06-08T21:05:27.580Z,16.50
2019-06-08T21:07:56.405Z,16.50
2019-06-08T21:10:27.939Z,16.40
2019-06-08T21:12:56.302Z,16.40
2019-06-08T21:15:27.472Z,16.40
2019-06-08T21:17:56.066Z,16.40
2019-06-08T21:20:24.470Z,16.30
2019-06-08T21:22:53.950Z,16.40
2019-06-08T21:25:23.346Z,16.30
2019-06-08T21:27:52.614Z,16.20
2019-06-08T21:30:24.676Z,16.20
2019-06-08T21:32:54.489Z,16.10
2019-06-08T21:35:22.809Z,16.20
2019-06-08T21:37:53.328Z,16.20
2019-06-08T21:40:21.605Z,16.10
2019-06-08T21:42:52.132Z,16.10
2019-06-08T21:45:20.161Z,16.10
2019-06-08T21:47:51.153Z,16.10
2019-06-08T21:50:18.874Z,16.10
2019-06-08T21:52:50.233Z,16.00
2019-06-08T21:55:17.884Z,16.10
2019-06-08T21:57:49.523Z,16.10
2019-06-08T22:00:37.770Z,16.10
2019-06-08T22:02:49.590Z,16.00
2019-06-08T22:05:18.536Z,16.00
2019-06-08T22:07:47.213Z,16.00
2019-06-08T22:10:17.805Z,15.90
2019-06-08T22:12:48.410Z,15.90
2019-06-08T22:15:18.249Z,15.80
2019-06-08T22:17:47.598Z,15.80
2019-06-08T22:20:18.606Z,15.70
2019-06-08T22:22:47.304Z,15.60
2019-06-08T22:25:17.504Z,15.60
2019-06-08T22:27:46.453Z,15.70
2019-06-08T22:30:32.471Z,15.60
2019-06-08T22:32:47.460Z,15.70
2019-06-08T22:35:16.070Z,15.60
2019-06-08T22:37:44.487Z,15.50
2019-06-08T22:40:13.492Z,15.60
2019-06-08T22:42:41.924Z,15.50
2019-06-08T22:45:11.517Z,15.50
2019-06-08T22:47:40.273Z,15.50
2019-06-08T22:50:09.345Z,15.50
2019-06-08T22:52:37.800Z,15.50
2019-06-08T22:55:10.828Z,15.50
2019-06-08T22:57:38.634Z,15.50
2019-06-08T23:00:16.263Z,15.40
2019-06-08T23:02:38.496Z,15.40
2019-06-08T23:05:08.985Z,15.50
2019-06-08T23:07:37.757Z,15.50
2019-06-08T23:10:09.010Z,15.40
2019-06-08T23:12:38.333Z,15.30
2019-06-08T23:15:08.606Z,15.30
2019-06-08T23:17:38.691Z,15.20
2019-06-08T23:20:08.612Z,15.20
2019-06-08T23:22:38.489Z,15.30
2019-06-08T23:25:09.283Z,15.30
2019-06-08T23:27:38.165Z,15.30
2019-06-08T23:30:10.052Z,15.30
2019-06-08T23:32:38.976Z,15.20
2019-06-08T23:35:09.486Z,15.20
2019-06-08T23:37:38.562Z,15.20
2019-06-08T23:40:08.394Z,15.20
2019-06-08T23:42:38.321Z,15.30
2019-06-08T23:45:10.140Z,15.30
2019-06-08T23:47:38.506Z,15.30
2019-06-08T23:50:11.286Z,15.20
2019-06-08T23:52:38.593Z,15.10
2019-06-08T23:55:10.506Z,15.10
2019-06-08T23:57:38.186Z,15.10
